sensor_id;sensor_type;location;lat;lon;timestamp;temperature;humidity
6824;DHT22;58633;49.470;11.004;2023-12-20T00:01:41;7.30;84.70
6824;DHT22;58633;49.470;11.004;2023-12-20T00:04:06;7.30;85.40
6824;DHT22;58633;49.470;11.004;2023-12-20T00:06:32;7.40;85.90
6824;DHT22;58633;49.470;11.004;2023-12-20T00:08:57;7.20;86.90
6824;DHT22;58633;49.470;11.004;2023-12-20T00:11:23;7.40;87.40
6824;DHT22;58633;49.470;11.004;2023-12-20T00:13:49;7.40;88.00
6824;DHT22;58633;49.470;11.004;2023-12-20T00:16:14;7.40;89.00
6824;DHT22;58633;49.470;11.004;2023-12-20T00:18:40;7.40;89.40
6824;DHT22;58633;49.470;11.004;2023-12-20T00:21:05;7.20;90.00
6824;DHT22;58633;49.470;11.004;2023-12-20T00:23:31;7.40;90.30
6824;DHT22;58633;49.470;11.004;2023-12-20T00:25:57;7.40;90.80
6824;DHT22;58633;49.470;11.004;2023-12-20T00:28:22;7.50;91.30
6824;DHT22;58633;49.470;11.004;2023-12-20T00:30:48;7.40;91.80
6824;DHT22;58633;49.470;11.004;2023-12-20T00:33:13;7.30;92.20
6824;DHT22;58633;49.470;11.004;2023-12-20T00:35:39;7.30;92.50
6824;DHT22;58633;49.470;11.004;2023-12-20T00:38:05;7.30;93.20
6824;DHT22;58633;49.470;11.004;2023-12-20T00:40:32;7.30;93.70
6824;DHT22;58633;49.470;11.004;2023-12-20T00:42:58;7.20;93.80
6824;DHT22;58633;49.470;11.004;2023-12-20T00:45:24;7.50;95.10
6824;DHT22;58633;49.470;11.004;2023-12-20T00:47:49;7.20;95.20
6824;DHT22;58633;49.470;11.004;2023-12-20T00:50:15;7.30;94.90
6824;DHT22;58633;49.470;11.004;2023-12-20T00:52:40;7.30;94.80
6824;DHT22;58633;49.470;11.004;2023-12-20T00:55:06;7.30;95.90
6824;DHT22;58633;49.470;11.004;2023-12-20T00:57:32;7.20;95.40
6824;DHT22;58633;49.470;11.004;2023-12-20T00:59:57;7.40;96.80
6824;DHT22;58633;49.470;11.004;2023-12-20T01:02:22;7.20;97.70
6824;DHT22;58633;49.470;11.004;2023-12-20T01:04:48;7.30;97.70
6824;DHT22;58633;49.470;11.004;2023-12-20T01:07:13;7.10;98.40
6824;DHT22;58633;49.470;11.004;2023-12-20T01:09:39;7.20;99.10
6824;DHT22;58633;49.470;11.004;2023-12-20T01:12:05;7.10;99.10
6824;DHT22;58633;49.470;11.004;2023-12-20T01:14:30;7.20;99.30
6824;DHT22;58633;49.470;11.004;2023-12-20T01:16:56;7.00;99.90
6824;DHT22;58633;49.470;11.004;2023-12-20T01:19:21;7.00;99.90
6824;DHT22;58633;49.470;11.004;2023-12-20T01:21:47;6.90;99.90
6824;DHT22;58633;49.470;11.004;2023-12-20T01:24:13;7.00;99.90
6824;DHT22;58633;49.470;11.004;2023-12-20T01:26:39;7.00;99.90
6824;DHT22;58633;49.470;11.004;2023-12-20T01:29:04;6.80;99.90
6824;DHT22;58633;49.470;11.004;2023-12-20T01:31:30;6.90;99.90
6824;DHT22;58633;49.470;11.004;2023-12-20T01:33:55;6.90;99.90
6824;DHT22;58633;49.470;11.004;2023-12-20T01:36:21;6.70;99.90
6824;DHT22;58633;49.470;11.004;2023-12-20T01:38:47;6.80;99.90
6824;DHT22;58633;49.470;11.004;2023-12-20T01:41:12;6.80;99.90
6824;DHT22;58633;49.470;11.004;2023-12-20T01:43:38;6.70;99.90
6824;DHT22;58633;49.470;11.004;2023-12-20T01:46:03;6.70;99.90
6824;DHT22;58633;49.470;11.004;2023-12-20T01:48:29;6.70;99.90
6824;DHT22;58633;49.470;11.004;2023-12-20T01:50:58;6.70;99.90
6824;DHT22;58633;49.470;11.004;2023-12-20T01:53:25;6.80;99.90
6824;DHT22;58633;49.470;11.004;2023-12-20T01:55:54;6.60;99.90
6824;DHT22;58633;49.470;11.004;2023-12-20T01:58:21;6.40;99.90
6824;DHT22;58633;49.470;11.004;2023-12-20T02:00:47;6.50;99.90
6824;DHT22;58633;49.470;11.004;2023-12-20T02:03:13;6.40;99.90
6824;DHT22;58633;49.470;11.004;2023-12-20T02:05:39;6.40;99.90
6824;DHT22;58633;49.470;11.004;2023-12-20T02:08:05;6.20;99.90
6824;DHT22;58633;49.470;11.004;2023-12-20T02:10:31;6.50;99.90
6824;DHT22;58633;49.470;11.004;2023-12-20T02:12:57;6.30;99.90
6824;DHT22;58633;49.470;11.004;2023-12-20T02:15:23;6.30;99.90
6824;DHT22;58633;49.470;11.004;2023-12-20T02:17:49;6.30;99.90
6824;DHT22;58633;49.470;11.004;2023-12-20T02:20:15;6.10;99.90
6824;DHT22;58633;49.470;11.004;2023-12-20T02:22:40;6.20;99.90
6824;DHT22;58633;49.470;11.004;2023-12-20T02:25:06;6.20;99.90
6824;DHT22;58633;49.470;11.004;2023-12-20T02:27:32;6.20;99.90
6824;DHT22;58633;49.470;11.004;2023-12-20T02:29:57;6.10;99.90
6824;DHT22;58633;49.470;11.004;2023-12-20T02:32:24;6.10;99.90
6824;DHT22;58633;49.470;11.004;2023-12-20T02:34:52;6.00;99.90
6824;DHT22;58633;49.470;11.004;2023-12-20T02:37:18;5.90;99.90
6824;DHT22;58633;49.470;11.004;2023-12-20T02:39:44;6.00;99.90
6824;DHT22;58633;49.470;11.004;2023-12-20T02:42:09;5.90;99.90
6824;DHT22;58633;49.470;11.004;2023-12-20T02:44:35;5.80;99.90
6824;DHT22;58633;49.470;11.004;2023-12-20T02:47:01;6.00;99.90
6824;DHT22;58633;49.470;11.004;2023-12-20T02:49:27;5.80;99.90
6824;DHT22;58633;49.470;11.004;2023-12-20T02:51:52;5.80;99.90
6824;DHT22;58633;49.470;11.004;2023-12-20T02:54:18;7.90;99.90
6824;DHT22;58633;49.470;11.004;2023-12-20T02:56:43;5.70;99.90
6824;DHT22;58633;49.470;11.004;2023-12-20T02:59:09;5.50;99.90
6824;DHT22;58633;49.470;11.004;2023-12-20T03:01:35;5.60;99.90
6824;DHT22;58633;49.470;11.004;2023-12-20T03:04:01;5.50;99.90
6824;DHT22;58633;49.470;11.004;2023-12-20T03:06:26;5.60;99.90
6824;DHT22;58633;49.470;11.004;2023-12-20T03:08:52;5.60;99.90
6824;DHT22;58633;49.470;11.004;2023-12-20T03:11:18;5.80;99.90
6824;DHT22;58633;49.470;11.004;2023-12-20T03:13:43;5.80;99.90
6824;DHT22;58633;49.470;11.004;2023-12-20T03:16:12;5.70;99.90
6824;DHT22;58633;49.470;11.004;2023-12-20T03:18:39;5.80;99.90
6824;DHT22;58633;49.470;11.004;2023-12-20T03:21:05;5.70;99.90
6824;DHT22;58633;49.470;11.004;2023-12-20T03:23:31;5.70;99.90
6824;DHT22;58633;49.470;11.004;2023-12-20T03:25:58;5.60;99.90
6824;DHT22;58633;49.470;11.004;2023-12-20T03:28:24;5.60;99.90
6824;DHT22;58633;49.470;11.004;2023-12-20T03:30:49;5.50;99.90
6824;DHT22;58633;49.470;11.004;2023-12-20T03:33:15;5.50;99.90
6824;DHT22;58633;49.470;11.004;2023-12-20T03:35:40;5.60;99.90
6824;DHT22;58633;49.470;11.004;2023-12-20T03:38:06;5.70;99.90
6824;DHT22;58633;49.470;11.004;2023-12-20T03:40:32;5.70;99.90
6824;DHT22;58633;49.470;11.004;2023-12-20T03:42:57;5.60;99.90
6824;DHT22;58633;49.470;11.004;2023-12-20T03:45:23;5.60;99.90
6824;DHT22;58633;49.470;11.004;2023-12-20T03:47:48;5.60;99.90
6824;DHT22;58633;49.470;11.004;2023-12-20T03:50:15;5.60;99.90
6824;DHT22;58633;49.470;11.004;2023-12-20T03:52:40;5.60;99.90
6824;DHT22;58633;49.470;11.004;2023-12-20T03:55:06;5.60;99.90
6824;DHT22;58633;49.470;11.004;2023-12-20T03:57:31;5.60;99.90
6824;DHT22;58633;49.470;11.004;2023-12-20T03:59:57;5.60;99.90
6824;DHT22;58633;49.470;11.004;2023-12-20T04:02:22;5.60;99.90
6824;DHT22;58633;49.470;11.004;2023-12-20T04:04:48;5.50;99.90
6824;DHT22;58633;49.470;11.004;2023-12-20T04:07:13;5.50;99.90
6824;DHT22;58633;49.470;11.004;2023-12-20T04:09:40;5.50;99.90
6824;DHT22;58633;49.470;11.004;2023-12-20T04:12:06;5.50;99.90
6824;DHT22;58633;49.470;11.004;2023-12-20T04:14:32;5.60;99.90
6824;DHT22;58633;49.470;11.004;2023-12-20T04:16:57;5.40;99.90
6824;DHT22;58633;49.470;11.004;2023-12-20T04:19:23;5.50;99.90
6824;DHT22;58633;49.470;11.004;2023-12-20T04:21:48;5.50;99.90
6824;DHT22;58633;49.470;11.004;2023-12-20T04:24:14;5.60;99.90
6824;DHT22;58633;49.470;11.004;2023-12-20T04:26:39;5.50;99.90
6824;DHT22;58633;49.470;11.004;2023-12-20T04:29:05;5.60;99.90
6824;DHT22;58633;49.470;11.004;2023-12-20T04:31:30;5.40;99.90
6824;DHT22;58633;49.470;11.004;2023-12-20T04:33:56;5.50;99.90
6824;DHT22;58633;49.470;11.004;2023-12-20T04:36:21;5.40;99.90
6824;DHT22;58633;49.470;11.004;2023-12-20T04:38:47;5.40;99.90
6824;DHT22;58633;49.470;11.004;2023-12-20T04:41:12;5.50;99.90
6824;DHT22;58633;49.470;11.004;2023-12-20T04:43:41;6.00;99.90
6824;DHT22;58633;49.470;11.004;2023-12-20T04:46:06;5.60;99.90
6824;DHT22;58633;49.470;11.004;2023-12-20T04:48:32;5.50;99.90
6824;DHT22;58633;49.470;11.004;2023-12-20T04:50:57;5.40;99.90
6824;DHT22;58633;49.470;11.004;2023-12-20T04:53:23;5.30;99.90
6824;DHT22;58633;49.470;11.004;2023-12-20T04:55:48;5.40;99.90
6824;DHT22;58633;49.470;11.004;2023-12-20T04:58:14;5.40;99.90
6824;DHT22;58633;49.470;11.004;2023-12-20T05:00:39;5.30;99.90
6824;DHT22;58633;49.470;11.004;2023-12-20T05:03:05;5.30;99.90
6824;DHT22;58633;49.470;11.004;2023-12-20T05:05:31;5.20;99.90
6824;DHT22;58633;49.470;11.004;2023-12-20T05:07:57;5.20;99.90
6824;DHT22;58633;49.470;11.004;2023-12-20T05:10:22;5.30;99.90
6824;DHT22;58633;49.470;11.004;2023-12-20T05:12:48;5.20;99.90
6824;DHT22;58633;49.470;11.004;2023-12-20T05:15:13;5.20;99.90
6824;DHT22;58633;49.470;11.004;2023-12-20T05:17:39;5.30;99.90
6824;DHT22;58633;49.470;11.004;2023-12-20T05:20:05;5.40;99.90
6824;DHT22;58633;49.470;11.004;2023-12-20T05:22:30;5.20;99.90
6824;DHT22;58633;49.470;11.004;2023-12-20T05:24:56;5.30;99.90
6824;DHT22;58633;49.470;11.004;2023-12-20T05:27:21;5.20;99.90
6824;DHT22;58633;49.470;11.004;2023-12-20T05:29:47;5.30;99.90
6824;DHT22;58633;49.470;11.004;2023-12-20T05:32:13;5.30;99.90
6824;DHT22;58633;49.470;11.004;2023-12-20T05:34:38;5.30;99.90
6824;DHT22;58633;49.470;11.004;2023-12-20T05:37:04;5.40;99.90
6824;DHT22;58633;49.470;11.004;2023-12-20T05:39:29;5.30;99.90
6824;DHT22;58633;49.470;11.004;2023-12-20T05:41:56;5.40;99.90
6824;DHT22;58633;49.470;11.004;2023-12-20T05:44:21;5.30;99.90
6824;DHT22;58633;49.470;11.004;2023-12-20T05:46:47;5.30;99.90
6824;DHT22;58633;49.470;11.004;2023-12-20T05:49:12;5.40;99.90
6824;DHT22;58633;49.470;11.004;2023-12-20T05:51:39;5.40;99.90
6824;DHT22;58633;49.470;11.004;2023-12-20T05:54:04;5.40;99.90
6824;DHT22;58633;49.470;11.004;2023-12-20T05:56:30;5.40;99.90
6824;DHT22;58633;49.470;11.004;2023-12-20T05:58:55;5.40;99.90
6824;DHT22;58633;49.470;11.004;2023-12-20T06:01:21;5.50;99.90
6824;DHT22;58633;49.470;11.004;2023-12-20T06:03:46;5.50;99.90
6824;DHT22;58633;49.470;11.004;2023-12-20T06:06:12;5.50;99.90
6824;DHT22;58633;49.470;11.004;2023-12-20T06:08:41;5.60;99.90
6824;DHT22;58633;49.470;11.004;2023-12-20T06:11:06;5.50;99.90
6824;DHT22;58633;49.470;11.004;2023-12-20T06:13:32;5.40;99.90
6824;DHT22;58633;49.470;11.004;2023-12-20T06:15:57;5.60;99.90
6824;DHT22;58633;49.470;11.004;2023-12-20T06:18:23;5.60;99.90
6824;DHT22;58633;49.470;11.004;2023-12-20T06:20:49;5.50;99.90
6824;DHT22;58633;49.470;11.004;2023-12-20T06:23:15;5.50;99.90
6824;DHT22;58633;49.470;11.004;2023-12-20T06:25:41;5.50;99.90
6824;DHT22;58633;49.470;11.004;2023-12-20T06:28:06;5.40;99.90
6824;DHT22;58633;49.470;11.004;2023-12-20T06:30:32;5.60;99.90
6824;DHT22;58633;49.470;11.004;2023-12-20T06:32:58;5.50;99.90
6824;DHT22;58633;49.470;11.004;2023-12-20T06:35:24;5.70;99.90
6824;DHT22;58633;49.470;11.004;2023-12-20T06:37:50;5.50;99.90
6824;DHT22;58633;49.470;11.004;2023-12-20T06:40:15;5.50;99.90
6824;DHT22;58633;49.470;11.004;2023-12-20T06:42:41;5.60;99.90
6824;DHT22;58633;49.470;11.004;2023-12-20T06:45:07;5.70;99.90
6824;DHT22;58633;49.470;11.004;2023-12-20T06:47:33;5.60;99.90
6824;DHT22;58633;49.470;11.004;2023-12-20T06:49:59;5.60;99.90
6824;DHT22;58633;49.470;11.004;2023-12-20T06:52:24;5.60;99.90
6824;DHT22;58633;49.470;11.004;2023-12-20T06:54:50;5.60;99.90
6824;DHT22;58633;49.470;11.004;2023-12-20T06:57:15;5.60;99.90
6824;DHT22;58633;49.470;11.004;2023-12-20T06:59:41;5.70;99.90
6824;DHT22;58633;49.470;11.004;2023-12-20T07:02:08;5.60;99.90
6824;DHT22;58633;49.470;11.004;2023-12-20T07:04:34;5.60;99.90
6824;DHT22;58633;49.470;11.004;2023-12-20T07:06:59;5.60;99.90
6824;DHT22;58633;49.470;11.004;2023-12-20T07:09:28;5.60;99.90
6824;DHT22;58633;49.470;11.004;2023-12-20T07:11:54;5.70;99.90
6824;DHT22;58633;49.470;11.004;2023-12-20T07:14:19;5.70;99.90
6824;DHT22;58633;49.470;11.004;2023-12-20T07:16:45;5.70;99.90
6824;DHT22;58633;49.470;11.004;2023-12-20T07:19:10;5.80;99.90
6824;DHT22;58633;49.470;11.004;2023-12-20T07:21:36;5.80;99.90
6824;DHT22;58633;49.470;11.004;2023-12-20T07:24:01;5.80;99.90
6824;DHT22;58633;49.470;11.004;2023-12-20T07:26:27;5.90;99.90
6824;DHT22;58633;49.470;11.004;2023-12-20T07:28:52;5.90;99.90
6824;DHT22;58633;49.470;11.004;2023-12-20T07:31:18;5.80;99.90
6824;DHT22;58633;49.470;11.004;2023-12-20T07:33:43;5.80;99.90
6824;DHT22;58633;49.470;11.004;2023-12-20T07:36:09;5.80;99.90
6824;DHT22;58633;49.470;11.004;2023-12-20T07:38:35;5.80;99.90
6824;DHT22;58633;49.470;11.004;2023-12-20T07:41:00;5.80;99.90
6824;DHT22;58633;49.470;11.004;2023-12-20T07:43:26;5.70;99.90
6824;DHT22;58633;49.470;11.004;2023-12-20T07:45:51;5.80;99.90
6824;DHT22;58633;49.470;11.004;2023-12-20T07:48:17;5.70;99.90
6824;DHT22;58633;49.470;11.004;2023-12-20T07:50:42;5.80;99.90
6824;DHT22;58633;49.470;11.004;2023-12-20T07:53:08;5.80;99.90
6824;DHT22;58633;49.470;11.004;2023-12-20T07:55:34;8.00;99.90
6824;DHT22;58633;49.470;11.004;2023-12-20T07:58:00;5.90;99.90
6824;DHT22;58633;49.470;11.004;2023-12-20T08:00:26;6.00;99.90
6824;DHT22;58633;49.470;11.004;2023-12-20T08:02:51;6.00;99.90
6824;DHT22;58633;49.470;11.004;2023-12-20T08:05:17;6.00;99.90
6824;DHT22;58633;49.470;11.004;2023-12-20T08:07:42;6.00;99.90
6824;DHT22;58633;49.470;11.004;2023-12-20T08:10:08;6.20;99.90
6824;DHT22;58633;49.470;11.004;2023-12-20T08:12:34;6.20;99.90
6824;DHT22;58633;49.470;11.004;2023-12-20T08:15:00;6.10;99.90
6824;DHT22;58633;49.470;11.004;2023-12-20T08:17:25;6.00;99.90
6824;DHT22;58633;49.470;11.004;2023-12-20T08:19:51;6.10;99.90
6824;DHT22;58633;49.470;11.004;2023-12-20T08:22:16;6.30;99.90
6824;DHT22;58633;49.470;11.004;2023-12-20T08:24:42;6.30;99.90
6824;DHT22;58633;49.470;11.004;2023-12-20T08:27:07;6.40;99.90
6824;DHT22;58633;49.470;11.004;2023-12-20T08:29:34;6.30;99.90
6824;DHT22;58633;49.470;11.004;2023-12-20T08:32:00;6.30;99.90
6824;DHT22;58633;49.470;11.004;2023-12-20T08:34:26;6.40;99.90
6824;DHT22;58633;49.470;11.004;2023-12-20T08:36:51;6.40;99.90
6824;DHT22;58633;49.470;11.004;2023-12-20T08:39:17;6.40;99.90
6824;DHT22;58633;49.470;11.004;2023-12-20T08:41:43;6.40;99.90
6824;DHT22;58633;49.470;11.004;2023-12-20T08:44:09;6.30;99.90
6824;DHT22;58633;49.470;11.004;2023-12-20T08:46:34;6.40;99.90
6824;DHT22;58633;49.470;11.004;2023-12-20T08:49:01;6.40;99.90
6824;DHT22;58633;49.470;11.004;2023-12-20T08:51:26;6.40;99.90
6824;DHT22;58633;49.470;11.004;2023-12-20T08:53:53;6.30;99.90
6824;DHT22;58633;49.470;11.004;2023-12-20T08:56:18;6.20;99.90
6824;DHT22;58633;49.470;11.004;2023-12-20T08:58:45;6.30;99.90
6824;DHT22;58633;49.470;11.004;2023-12-20T09:01:11;6.10;99.10
6824;DHT22;58633;49.470;11.004;2023-12-20T09:03:36;6.20;99.90
6824;DHT22;58633;49.470;11.004;2023-12-20T09:06:02;6.40;99.90
6824;DHT22;58633;49.470;11.004;2023-12-20T09:08:27;6.50;99.90
6824;DHT22;58633;49.470;11.004;2023-12-20T09:10:53;6.70;99.90
6824;DHT22;58633;49.470;11.004;2023-12-20T09:13:18;6.60;96.60
6824;DHT22;58633;49.470;11.004;2023-12-20T09:15:44;6.60;96.80
6824;DHT22;58633;49.470;11.004;2023-12-20T09:18:09;6.60;96.30
6824;DHT22;58633;49.470;11.004;2023-12-20T09:20:35;6.90;98.50
6824;DHT22;58633;49.470;11.004;2023-12-20T09:23:01;7.10;94.20
6824;DHT22;58633;49.470;11.004;2023-12-20T09:25:26;7.20;91.70
6824;DHT22;58633;49.470;11.004;2023-12-20T09:27:52;7.30;91.30
6824;DHT22;58633;49.470;11.004;2023-12-20T09:30:18;7.10;90.50
6824;DHT22;58633;49.470;11.004;2023-12-20T09:32:45;7.20;90.80
6824;DHT22;58633;49.470;11.004;2023-12-20T09:35:10;7.30;88.70
6824;DHT22;58633;49.470;11.004;2023-12-20T09:37:36;7.40;89.60
6824;DHT22;58633;49.470;11.004;2023-12-20T09:40:01;7.40;88.60
6824;DHT22;58633;49.470;11.004;2023-12-20T09:45:02;7.50;86.00
6824;DHT22;58633;49.470;11.004;2023-12-20T09:47:28;7.70;84.60
6824;DHT22;58633;49.470;11.004;2023-12-20T09:49:54;7.70;81.50
6824;DHT22;58633;49.470;11.004;2023-12-20T09:52:22;7.70;81.40
6824;DHT22;58633;49.470;11.004;2023-12-20T09:54:49;7.70;80.40
6824;DHT22;58633;49.470;11.004;2023-12-20T09:57:17;7.70;80.10
6824;DHT22;58633;49.470;11.004;2023-12-20T09:59:43;8.00;78.40
6824;DHT22;58633;49.470;11.004;2023-12-20T10:02:12;8.00;77.40
6824;DHT22;58633;49.470;11.004;2023-12-20T10:04:42;8.40;78.10
6824;DHT22;58633;49.470;11.004;2023-12-20T10:07:10;8.50;74.70
6824;DHT22;58633;49.470;11.004;2023-12-20T10:09:36;8.50;72.90
6824;DHT22;58633;49.470;11.004;2023-12-20T10:12:02;8.80;72.50
6824;DHT22;58633;49.470;11.004;2023-12-20T10:14:28;8.50;72.60
6824;DHT22;58633;49.470;11.004;2023-12-20T10:16:53;8.30;72.00
6824;DHT22;58633;49.470;11.004;2023-12-20T10:19:20;8.50;72.10
6824;DHT22;58633;49.470;11.004;2023-12-20T10:21:46;8.40;71.80
6824;DHT22;58633;49.470;11.004;2023-12-20T10:24:17;8.30;70.70
6824;DHT22;58633;49.470;11.004;2023-12-20T10:26:42;8.20;70.50
6824;DHT22;58633;49.470;11.004;2023-12-20T10:29:08;8.10;70.50
6824;DHT22;58633;49.470;11.004;2023-12-20T10:31:35;8.30;70.60
6824;DHT22;58633;49.470;11.004;2023-12-20T10:34:02;8.10;69.60
6824;DHT22;58633;49.470;11.004;2023-12-20T10:36:32;8.00;69.10
6824;DHT22;58633;49.470;11.004;2023-12-20T10:38:58;8.00;69.50
6824;DHT22;58633;49.470;11.004;2023-12-20T10:41:29;8.10;70.50
6824;DHT22;58633;49.470;11.004;2023-12-20T10:44:00;8.00;70.20
6824;DHT22;58633;49.470;11.004;2023-12-20T10:46:29;7.90;70.30
6824;DHT22;58633;49.470;11.004;2023-12-20T10:48:56;8.00;70.20
6824;DHT22;58633;49.470;11.004;2023-12-20T10:51:22;7.70;70.10
6824;DHT22;58633;49.470;11.004;2023-12-20T10:53:49;7.80;70.20
6824;DHT22;58633;49.470;11.004;2023-12-20T10:56:17;7.70;69.90
6824;DHT22;58633;49.470;11.004;2023-12-20T10:58:49;7.60;70.20
6824;DHT22;58633;49.470;11.004;2023-12-20T11:01:16;7.60;70.30
6824;DHT22;58633;49.470;11.004;2023-12-20T11:03:47;7.50;70.50
6824;DHT22;58633;49.470;11.004;2023-12-20T11:09:01;7.50;70.30
6824;DHT22;58633;49.470;11.004;2023-12-20T11:11:47;7.40;70.30
6824;DHT22;58633;49.470;11.004;2023-12-20T11:14:23;7.50;71.00
6824;DHT22;58633;49.470;11.004;2023-12-20T11:16:50;7.50;70.90
6824;DHT22;58633;49.470;11.004;2023-12-20T11:19:16;7.60;70.90
6824;DHT22;58633;49.470;11.004;2023-12-20T11:21:42;7.50;70.50
6824;DHT22;58633;49.470;11.004;2023-12-20T11:24:08;7.40;70.90
6824;DHT22;58633;49.470;11.004;2023-12-20T11:26:34;7.40;71.10
6824;DHT22;58633;49.470;11.004;2023-12-20T11:29:33;7.20;71.10
6824;DHT22;58633;49.470;11.004;2023-12-20T11:32:03;7.20;71.60
6824;DHT22;58633;49.470;11.004;2023-12-20T11:34:32;7.20;71.80
6824;DHT22;58633;49.470;11.004;2023-12-20T11:36:59;7.20;71.90
6824;DHT22;58633;49.470;11.004;2023-12-20T11:39:26;7.30;72.10
6824;DHT22;58633;49.470;11.004;2023-12-20T11:41:54;7.30;72.20
6824;DHT22;58633;49.470;11.004;2023-12-20T11:44:20;7.40;71.90
6824;DHT22;58633;49.470;11.004;2023-12-20T11:46:46;7.30;71.50
6824;DHT22;58633;49.470;11.004;2023-12-20T11:49:11;7.50;71.80
6824;DHT22;58633;49.470;11.004;2023-12-20T11:51:41;7.20;71.50
6824;DHT22;58633;49.470;11.004;2023-12-20T11:54:07;7.20;70.90
6824;DHT22;58633;49.470;11.004;2023-12-20T11:56:32;7.10;71.30
6824;DHT22;58633;49.470;11.004;2023-12-20T11:58:58;7.10;71.90
6824;DHT22;58633;49.470;11.004;2023-12-20T12:01:24;7.10;72.20
6824;DHT22;58633;49.470;11.004;2023-12-20T12:04:02;7.10;72.30
6824;DHT22;58633;49.470;11.004;2023-12-20T12:06:28;7.10;72.40
6824;DHT22;58633;49.470;11.004;2023-12-20T12:08:54;7.00;72.50
6824;DHT22;58633;49.470;11.004;2023-12-20T12:11:21;7.00;72.60
6824;DHT22;58633;49.470;11.004;2023-12-20T12:13:47;6.90;72.50
6824;DHT22;58633;49.470;11.004;2023-12-20T12:16:12;7.00;72.40
6824;DHT22;58633;49.470;11.004;2023-12-20T12:18:38;7.20;72.60
6824;DHT22;58633;49.470;11.004;2023-12-20T12:21:07;7.00;72.10
6824;DHT22;58633;49.470;11.004;2023-12-20T12:23:38;7.10;72.20
6824;DHT22;58633;49.470;11.004;2023-12-20T12:26:09;7.80;72.60
6824;DHT22;58633;49.470;11.004;2023-12-20T12:28:40;7.10;72.10
6824;DHT22;58633;49.470;11.004;2023-12-20T12:31:07;7.20;71.70
6824;DHT22;58633;49.470;11.004;2023-12-20T12:33:33;7.10;71.50
6824;DHT22;58633;49.470;11.004;2023-12-20T12:35:59;7.10;71.50
6824;DHT22;58633;49.470;11.004;2023-12-20T12:38:25;8.20;72.00
6824;DHT22;58633;49.470;11.004;2023-12-20T12:40:51;7.20;71.10
6824;DHT22;58633;49.470;11.004;2023-12-20T12:43:19;7.20;71.10
6824;DHT22;58633;49.470;11.004;2023-12-20T12:45:44;8.70;72.50
6824;DHT22;58633;49.470;11.004;2023-12-20T12:48:10;7.40;73.50
6824;DHT22;58633;49.470;11.004;2023-12-20T12:50:36;7.20;73.20
6824;DHT22;58633;49.470;11.004;2023-12-20T12:53:01;9.50;73.60
6824;DHT22;58633;49.470;11.004;2023-12-20T12:55:28;6.90;70.80
6824;DHT22;58633;49.470;11.004;2023-12-20T12:57:53;7.50;71.10
6824;DHT22;58633;49.470;11.004;2023-12-20T13:00:19;6.90;69.70
6824;DHT22;58633;49.470;11.004;2023-12-20T13:02:45;7.30;69.90
6824;DHT22;58633;49.470;11.004;2023-12-20T13:05:10;7.20;70.30
6824;DHT22;58633;49.470;11.004;2023-12-20T13:07:36;7.10;70.00
6824;DHT22;58633;49.470;11.004;2023-12-20T13:10:03;7.10;70.40
6824;DHT22;58633;49.470;11.004;2023-12-20T13:12:29;7.30;70.80
6824;DHT22;58633;49.470;11.004;2023-12-20T13:14:55;7.30;70.80
6824;DHT22;58633;49.470;11.004;2023-12-20T13:17:20;7.30;70.70
6824;DHT22;58633;49.470;11.004;2023-12-20T13:19:46;9.60;73.30
6824;DHT22;58633;49.470;11.004;2023-12-20T13:22:12;9.30;73.00
6824;DHT22;58633;49.470;11.004;2023-12-20T13:24:37;7.60;70.00
6824;DHT22;58633;49.470;11.004;2023-12-20T13:27:03;7.30;70.40
6824;DHT22;58633;49.470;11.004;2023-12-20T13:29:28;7.70;70.70
6824;DHT22;58633;49.470;11.004;2023-12-20T13:31:54;7.70;70.00
6824;DHT22;58633;49.470;11.004;2023-12-20T13:34:20;7.80;69.50
6824;DHT22;58633;49.470;11.004;2023-12-20T13:36:45;7.70;69.40
6824;DHT22;58633;49.470;11.004;2023-12-20T13:39:13;7.60;69.30
6824;DHT22;58633;49.470;11.004;2023-12-20T13:41:38;7.60;69.10
6824;DHT22;58633;49.470;11.004;2023-12-20T13:44:04;7.40;68.90
6824;DHT22;58633;49.470;11.004;2023-12-20T13:46:30;7.40;68.50
6824;DHT22;58633;49.470;11.004;2023-12-20T13:48:55;7.20;68.10
6824;DHT22;58633;49.470;11.004;2023-12-20T13:51:21;7.20;68.70
6824;DHT22;58633;49.470;11.004;2023-12-20T13:53:47;7.20;69.10
6824;DHT22;58633;49.470;11.004;2023-12-20T13:56:14;7.10;69.10
6824;DHT22;58633;49.470;11.004;2023-12-20T13:58:39;7.20;69.20
6824;DHT22;58633;49.470;11.004;2023-12-20T14:01:09;7.20;70.10
6824;DHT22;58633;49.470;11.004;2023-12-20T14:03:35;7.30;70.60
6824;DHT22;58633;49.470;11.004;2023-12-20T14:06:01;7.60;71.40
6824;DHT22;58633;49.470;11.004;2023-12-20T14:08:27;7.80;70.40
6824;DHT22;58633;49.470;11.004;2023-12-20T14:10:52;9.50;70.20
6824;DHT22;58633;49.470;11.004;2023-12-20T14:13:18;7.60;68.00
6824;DHT22;58633;49.470;11.004;2023-12-20T14:15:44;7.50;68.00
6824;DHT22;58633;49.470;11.004;2023-12-20T14:18:09;7.60;68.00
6824;DHT22;58633;49.470;11.004;2023-12-20T14:20:35;7.30;67.80
6824;DHT22;58633;49.470;11.004;2023-12-20T14:23:04;7.10;67.80
6824;DHT22;58633;49.470;11.004;2023-12-20T14:25:31;7.10;67.90
6824;DHT22;58633;49.470;11.004;2023-12-20T14:27:57;7.00;68.30
6824;DHT22;58633;49.470;11.004;2023-12-20T14:30:23;7.00;68.70
6824;DHT22;58633;49.470;11.004;2023-12-20T14:32:48;7.00;68.80
6824;DHT22;58633;49.470;11.004;2023-12-20T14:35:14;7.10;69.30
6824;DHT22;58633;49.470;11.004;2023-12-20T14:37:40;7.00;69.40
6824;DHT22;58633;49.470;11.004;2023-12-20T14:40:10;6.80;69.40
6824;DHT22;58633;49.470;11.004;2023-12-20T14:42:40;6.70;69.60
6824;DHT22;58633;49.470;11.004;2023-12-20T14:45:06;6.70;70.20
6824;DHT22;58633;49.470;11.004;2023-12-20T14:47:32;6.60;70.50
6824;DHT22;58633;49.470;11.004;2023-12-20T14:49:57;6.70;70.60
6824;DHT22;58633;49.470;11.004;2023-12-20T14:52:23;6.60;70.80
6824;DHT22;58633;49.470;11.004;2023-12-20T14:54:49;6.70;70.90
6824;DHT22;58633;49.470;11.004;2023-12-20T14:57:14;6.60;70.90
6824;DHT22;58633;49.470;11.004;2023-12-20T14:59:40;6.70;71.80
6824;DHT22;58633;49.470;11.004;2023-12-20T15:02:06;6.70;71.80
6824;DHT22;58633;49.470;11.004;2023-12-20T15:04:32;6.60;71.30
6824;DHT22;58633;49.470;11.004;2023-12-20T15:06:57;6.60;71.40
6824;DHT22;58633;49.470;11.004;2023-12-20T15:09:23;6.60;71.60
6824;DHT22;58633;49.470;11.004;2023-12-20T15:11:49;6.50;71.60
6824;DHT22;58633;49.470;11.004;2023-12-20T15:14:15;6.40;71.80
6824;DHT22;58633;49.470;11.004;2023-12-20T15:16:47;6.60;72.10
6824;DHT22;58633;49.470;11.004;2023-12-20T15:19:13;6.40;72.00
6824;DHT22;58633;49.470;11.004;2023-12-20T15:21:39;6.40;71.90
6824;DHT22;58633;49.470;11.004;2023-12-20T15:24:11;6.30;72.00
6824;DHT22;58633;49.470;11.004;2023-12-20T15:26:40;6.30;72.10
6824;DHT22;58633;49.470;11.004;2023-12-20T15:29:06;6.30;72.30
6824;DHT22;58633;49.470;11.004;2023-12-20T15:31:32;6.10;72.20
6824;DHT22;58633;49.470;11.004;2023-12-20T15:33:59;6.30;72.40
6824;DHT22;58633;49.470;11.004;2023-12-20T15:36:24;6.20;72.30
6824;DHT22;58633;49.470;11.004;2023-12-20T15:38:51;6.30;72.60
6824;DHT22;58633;49.470;11.004;2023-12-20T15:41:18;6.10;72.30
6824;DHT22;58633;49.470;11.004;2023-12-20T15:43:44;6.30;72.60